createdAt,value
2019-06-07T00:01:08.465Z,87.11
2019-06-07T00:03:39.954Z,87.90
2019-06-07T00:06:15.106Z,87.56
2019-06-07T00:08:45.657Z,87.63
2019-06-07T00:11:20.020Z,87.04
2019-06-07T00:13:51.987Z,87.30
2019-06-07T00:16:23.746Z,88.08
2019-06-07T00:18:55.517Z,87.98
2019-06-07T00:22:12.867Z,87.47
2019-06-07T00:24:00.755Z,88.36
2019-06-07T00:26:32.520Z,88.64
2019-06-07T00:29:05.928Z,87.69
2019-06-07T00:31:38.463Z,87.33
2019-06-07T00:34:11.993Z,86.81
2019-06-07T00:36:44.258Z,86.64
2019-06-07T00:39:21.931Z,86.97
2019-06-07T00:41:49.495Z,86.33
2019-06-07T00:44:23.249Z,85.55
2019-06-07T00:46:54.772Z,86.26
2019-06-07T00:49:40.458Z,86.91
2019-06-07T00:52:00.271Z,86.22
2019-06-07T00:54:32.379Z,86.85
2019-06-07T00:57:04.136Z,86.81
2019-06-07T00:59:35.966Z,86.37
2019-06-07T01:02:07.742Z,86.30
2019-06-07T01:04:39.525Z,87.47
2019-06-07T01:07:11.286Z,87.94
2019-06-07T01:09:43.400Z,88.05
2019-06-07T01:12:19.433Z,88.05
2019-06-07T01:14:48.636Z,87.35
2019-06-07T01:17:41.332Z,87.30
2019-06-07T01:20:03.381Z,86.90
2019-06-07T01:22:35.144Z,86.77
2019-06-07T01:25:08.528Z,86.81
2019-06-07T01:27:40.301Z,86.48
2019-06-07T01:30:16.221Z,87.34
2019-06-07T01:32:48.125Z,88.23
2019-06-07T01:35:20.577Z,88.20
2019-06-07T01:37:53.944Z,86.87
2019-06-07T01:40:31.839Z,86.04
2019-06-07T01:42:59.458Z,85.39
2019-06-07T01:45:31.338Z,84.54
2019-06-07T01:48:04.260Z,84.84
2019-06-07T01:50:36.358Z,84.85
2019-06-07T01:53:08.683Z,84.81
2019-06-07T01:55:40.451Z,84.92
2019-06-07T01:58:12.219Z,85.45
2019-06-07T02:00:44.389Z,86.60
2019-06-07T02:03:18.360Z,86.51
2019-06-07T02:05:49.766Z,86.63
2019-06-07T02:08:22.244Z,86.94
2019-06-07T02:10:55.002Z,86.28
2019-06-07T02:13:28.897Z,86.27
2019-06-07T02:16:00.223Z,86.07
2019-06-07T02:18:34.738Z,86.91
2019-06-07T02:21:05.523Z,86.61
2019-06-07T02:23:37.620Z,86.77
2019-06-07T02:26:10.626Z,85.99
2019-06-07T02:28:45.532Z,86.15
2019-06-07T02:31:15.850Z,86.17
2019-06-07T02:33:47.679Z,86.05
2019-06-07T02:36:19.454Z,86.93
2019-06-07T02:38:51.288Z,87.97
2019-06-07T02:41:28.037Z,88.90
2019-06-07T02:43:57.548Z,88.43
2019-06-07T02:46:40.213Z,88.80
2019-06-07T02:49:02.790Z,89.68
2019-06-07T02:51:41.281Z,89.85
2019-06-07T02:54:08.080Z,89.69
2019-06-07T02:56:56.670Z,89.16
2019-06-07T02:59:13.367Z,88.16
2019-06-07T03:01:45.549Z,87.08
2019-06-07T03:04:17.933Z,86.08
2019-06-07T03:06:51.298Z,85.98
2019-06-07T03:09:23.125Z,87.06
2019-06-07T03:11:56.997Z,87.10
2019-06-07T03:14:32.547Z,87.31
2019-06-07T03:17:05.610Z,87.73
2019-06-07T03:19:39.803Z,87.77
2019-06-07T03:22:11.570Z,87.91
2019-06-07T03:24:46.235Z,88.49
2019-06-07T03:27:41.488Z,88.65
2019-06-07T03:29:51.612Z,88.25
2019-06-07T03:32:24.055Z,88.32
2019-06-07T03:34:55.812Z,88.25
2019-06-07T03:37:29.949Z,88.58
2019-06-07T03:40:01.028Z,88.36
2019-06-07T03:42:34.847Z,88.41
2019-06-07T03:45:09.145Z,88.41
2019-06-07T03:47:42.627Z,88.64
2019-06-07T03:50:14.636Z,89.48
2019-06-07T03:52:46.404Z,89.13
2019-06-07T03:55:18.161Z,89.62
2019-06-07T04:00:23.462Z,89.89
2019-06-07T04:02:55.231Z,90.19
2019-06-07T04:05:28.732Z,90.56
2019-06-07T04:08:00.767Z,91.25
2019-06-07T04:10:51.710Z,90.58
2019-06-07T04:13:06.061Z,91.11
2019-06-07T04:15:39.563Z,91.41
2019-06-07T04:18:11.245Z,91.62
2019-06-07T04:20:43.023Z,91.49
2019-06-07T04:23:27.907Z,92.37
2019-06-07T04:25:48.278Z,92.18
2019-06-07T04:28:20.060Z,92.48
2019-06-07T04:30:51.852Z,92.71
2019-06-07T04:33:23.614Z,92.11
2019-06-07T04:35:57.221Z,92.09
2019-06-07T04:38:32.697Z,91.85
2019-06-07T04:41:04.972Z,91.49
2019-06-07T04:43:41.132Z,91.01
2019-06-07T04:46:13.535Z,90.99
2019-06-07T04:48:46.849Z,91.04
2019-06-07T04:51:20.366Z,91.48
2019-06-07T04:53:52.282Z,91.05
2019-06-07T04:56:24.372Z,91.18
2019-06-07T04:58:57.687Z,90.72
2019-06-07T05:01:30.811Z,90.15
2019-06-07T05:04:03.082Z,90.12
2019-06-07T05:06:37.659Z,89.71
2019-06-07T05:09:08.783Z,90.14
2019-06-07T05:11:44.839Z,89.79
2019-06-07T05:14:14.098Z,89.69
2019-06-07T05:16:46.294Z,89.33
2019-06-07T05:19:18.082Z,89.08
2019-06-07T05:22:03.687Z,89.22
2019-06-07T05:24:24.322Z,88.41
2019-06-07T05:26:56.086Z,88.88
2019-06-07T05:29:27.951Z,87.70
2019-06-07T05:32:00.484Z,87.44
2019-06-07T05:34:34.047Z,87.28
2019-06-07T05:37:11.625Z,86.70
2019-06-07T05:39:42.588Z,86.98
2019-06-07T05:42:12.925Z,86.34
2019-06-07T05:44:45.882Z,86.64
2019-06-07T05:47:17.787Z,86.65
2019-06-07T05:49:49.903Z,87.14
2019-06-07T05:52:21.736Z,87.16
2019-06-07T05:54:53.515Z,86.45
2019-06-07T05:57:25.312Z,86.81
2019-06-07T05:59:57.133Z,87.08
2019-06-07T06:02:28.916Z,86.07
2019-06-07T06:05:00.702Z,86.53
2019-06-07T06:07:34.764Z,87.15
2019-06-07T06:10:09.360Z,86.73
2019-06-07T06:12:46.035Z,87.35
2019-06-07T06:15:15.032Z,86.97
2019-06-07T06:17:50.012Z,85.77
2019-06-07T06:20:21.248Z,85.49
2019-06-07T06:22:53.106Z,85.95
2019-06-07T06:25:33.784Z,86.03
2019-06-07T06:28:11.782Z,85.23
2019-06-07T06:30:31.986Z,84.45
2019-06-07T06:33:04.906Z,84.83
2019-06-07T06:35:37.536Z,85.22
2019-06-07T06:38:09.336Z,84.37
2019-06-07T06:40:45.095Z,84.15
2019-06-07T06:43:14.667Z,83.86
2019-06-07T06:45:47.852Z,83.97
2019-06-07T06:48:20.376Z,84.20
2019-06-07T06:50:52.810Z,84.68
2019-06-07T06:53:24.735Z,84.40
2019-06-07T06:55:56.524Z,83.79
2019-06-07T06:58:28.307Z,83.37
2019-06-07T07:01:06.346Z,83.00
2019-06-07T07:03:57.619Z,82.66
2019-06-07T07:06:25.312Z,82.04
2019-06-07T07:08:43.639Z,81.99
2019-06-07T07:11:16.256Z,81.77
2019-06-07T07:13:52.422Z,81.55
2019-06-07T07:16:21.666Z,81.03
2019-06-07T07:18:54.721Z,79.95
2019-06-07T07:21:26.847Z,79.44
2019-06-07T07:24:20.442Z,79.21
2019-06-07T07:26:34.154Z,79.65
2019-06-07T07:29:06.335Z,78.40
2019-06-07T07:31:38.095Z,79.39
2019-06-07T07:34:31.967Z,79.59
2019-06-07T07:36:47.170Z,78.43
2019-06-07T07:39:17.261Z,78.73
2019-06-07T07:42:13.717Z,78.62
2019-06-07T07:44:22.661Z,78.16
2019-06-07T07:46:56.277Z,77.16
2019-06-07T07:49:29.007Z,76.23
2019-06-07T07:52:00.803Z,77.07
2019-06-07T07:54:32.581Z,77.99
2019-06-07T07:57:04.371Z,77.84
2019-06-07T07:59:44.062Z,77.13
2019-06-07T08:02:09.660Z,75.17
2019-06-07T08:05:13.454Z,74.82
2019-06-07T08:07:16.067Z,75.40
2019-06-07T08:09:50.523Z,74.71
2019-06-07T08:12:21.462Z,74.00
2019-06-07T08:14:57.623Z,73.79
2019-06-07T08:17:26.700Z,72.85
2019-06-07T08:20:02.608Z,72.87
2019-06-07T08:22:31.962Z,71.33
2019-06-07T08:25:07.830Z,70.37
2019-06-07T08:27:39.619Z,72.53
2019-06-07T08:30:47.185Z,71.13
2019-06-07T08:32:54.942Z,70.18
2019-06-07T08:36:03.741Z,69.45
2019-06-07T08:38:26.054Z,70.53
2019-06-07T08:40:32.558Z,70.49
2019-06-07T08:43:18.228Z,70.25
2019-06-07T08:45:38.046Z,70.26
2019-06-07T08:48:27.145Z,69.34
2019-06-07T08:50:43.356Z,69.80
2019-06-07T08:53:15.147Z,69.20
2019-06-07T08:55:46.939Z,68.64
2019-06-07T08:58:18.714Z,68.55
2019-06-07T09:00:51.655Z,68.64
2019-06-07T09:03:24.017Z,67.35
2019-06-07T09:05:59.312Z,66.81
2019-06-07T09:08:30.943Z,66.27
2019-06-07T09:11:10.227Z,66.79
2019-06-07T09:13:36.358Z,66.23
2019-06-07T09:16:09.017Z,66.06
2019-06-07T09:18:44.446Z,65.32
2019-06-07T09:21:14.365Z,65.29
2019-06-07T09:23:46.452Z,64.80
2019-06-07T09:26:19.127Z,64.32
2019-06-07T09:28:51.531Z,62.59
2019-06-07T09:31:23.299Z,63.42
2019-06-07T09:33:59.797Z,62.35
2019-06-07T09:36:28.532Z,63.48
2019-06-07T09:39:07.426Z,62.84
2019-06-07T09:41:47.643Z,61.91
2019-06-07T09:44:21.558Z,62.42
2019-06-07T09:46:42.419Z,63.08
2019-06-07T09:49:28.653Z,62.45
2019-06-07T09:51:47.644Z,63.47
2019-06-07T09:56:54.230Z,60.90
2019-06-07T09:59:25.987Z,61.97
2019-06-07T10:01:59.556Z,60.32
2019-06-07T10:04:31.752Z,60.97
2019-06-07T10:07:13.126Z,59.70
2019-06-07T10:12:11.041Z,60.24
2019-06-07T10:14:45.086Z,59.41
2019-06-07T10:17:16.749Z,60.16
2019-06-07T10:19:48.780Z,59.31
2019-06-07T10:22:20.551Z,58.08
2019-06-07T10:24:52.317Z,60.47
2019-06-07T10:27:24.234Z,58.98
2019-06-07T10:29:56.009Z,60.57
2019-06-07T10:32:27.793Z,59.38
2019-06-07T10:35:00.530Z,57.73
2019-06-07T10:37:32.411Z,57.01
2019-06-07T10:40:07.949Z,57.12
2019-06-07T10:42:40.911Z,56.66
2019-06-07T10:45:13.108Z,57.51
2019-06-07T10:47:44.856Z,57.81
2019-06-07T10:50:17.373Z,58.68
2019-06-07T10:52:49.136Z,58.21
2019-06-07T10:55:20.973Z,57.56
2019-06-07T10:57:52.744Z,55.53
2019-06-07T11:00:25.074Z,55.42
2019-06-07T11:02:56.858Z,55.98
2019-06-07T11:05:28.908Z,55.30
2019-06-07T11:08:00.810Z,55.48
2019-06-07T11:10:32.530Z,56.80
2019-06-07T11:13:04.303Z,55.18
2019-06-07T11:15:36.069Z,54.42
2019-06-07T11:18:08.424Z,54.47
2019-06-07T11:20:40.356Z,54.53
2019-06-07T11:23:12.482Z,55.58
2019-06-07T11:25:44.315Z,54.57
2019-06-07T11:28:16.092Z,54.30
2019-06-07T11:30:48.232Z,53.78
2019-06-07T11:33:20.000Z,54.29
2019-06-07T11:35:51.766Z,52.89
2019-06-07T11:38:23.610Z,52.34
2019-06-07T11:40:55.373Z,53.06
2019-06-07T11:43:27.140Z,51.31
2019-06-07T11:45:58.909Z,50.86
2019-06-07T11:48:30.694Z,50.65
2019-06-07T11:51:02.498Z,51.17
2019-06-07T11:53:34.268Z,51.51
2019-06-07T11:56:06.212Z,51.07
2019-06-07T11:58:38.087Z,48.50
2019-06-07T12:01:11.686Z,50.91
2019-06-07T12:03:43.458Z,50.32
2019-06-07T12:06:16.405Z,50.12
2019-06-07T12:08:48.245Z,50.60
2019-06-07T12:11:20.295Z,50.99
2019-06-07T12:13:52.080Z,49.69
2019-06-07T12:16:23.844Z,50.00
2019-06-07T12:18:55.616Z,49.76
2019-06-07T12:21:27.410Z,48.20
2019-06-07T12:23:59.182Z,48.34
2019-06-07T12:26:31.038Z,49.01
2019-06-07T12:29:02.820Z,47.92
2019-06-07T12:31:34.883Z,47.35
2019-06-07T12:34:07.009Z,47.25
2019-06-07T12:36:38.785Z,46.55
2019-06-07T12:39:11.859Z,46.87
2019-06-07T12:41:43.786Z,46.47
2019-06-07T12:44:16.588Z,47.30
2019-06-07T12:46:48.466Z,46.78
2019-06-07T12:49:21.180Z,46.45
2019-06-07T12:51:52.982Z,46.20
2019-06-07T12:54:24.769Z,46.48
2019-06-07T12:56:57.591Z,46.88
2019-06-07T12:59:29.369Z,45.41
2019-06-07T13:02:02.621Z,46.31
2019-06-07T13:04:34.565Z,46.07
2019-06-07T13:07:06.391Z,45.59
2019-06-07T13:09:38.158Z,44.80
2019-06-07T13:12:09.989Z,45.26
2019-06-07T13:14:41.775Z,45.10
2019-06-07T13:17:13.542Z,44.94
2019-06-07T13:19:45.310Z,44.59
2019-06-07T13:22:18.332Z,45.56
2019-06-07T13:24:50.236Z,44.34
2019-06-07T13:27:22.481Z,44.02
2019-06-07T13:29:54.350Z,42.96
2019-06-07T13:32:26.411Z,43.41
2019-06-07T13:34:58.185Z,43.46
2019-06-07T13:37:29.949Z,42.67
2019-06-07T13:40:01.742Z,42.92
2019-06-07T13:42:33.493Z,42.57
2019-06-07T13:45:07.299Z,43.26
2019-06-07T13:47:39.029Z,43.02
2019-06-07T13:50:11.859Z,41.22
2019-06-07T13:52:45.181Z,42.51
2019-06-07T13:55:20.049Z,42.79
2019-06-07T13:57:51.869Z,43.54
2019-06-07T14:00:24.865Z,43.91
2019-06-07T14:02:56.694Z,43.30
2019-06-07T14:05:29.116Z,43.72
2019-06-07T14:08:00.990Z,43.49
2019-06-07T14:10:32.764Z,43.22
2019-06-07T14:13:04.599Z,43.38
2019-06-07T14:15:36.408Z,42.71
2019-06-07T14:18:08.153Z,42.59
2019-06-07T14:20:39.945Z,42.02
2019-06-07T14:23:11.687Z,42.11
2019-06-07T14:25:43.458Z,40.73
2019-06-07T14:28:15.474Z,39.47
2019-06-07T14:30:47.241Z,40.15
2019-06-07T14:33:19.005Z,40.44
2019-06-07T14:35:50.769Z,40.39
2019-06-07T14:38:23.103Z,40.55
2019-06-07T14:40:54.892Z,40.92
2019-06-07T14:43:27.606Z,42.10
2019-06-07T14:45:59.512Z,41.89
2019-06-07T14:48:32.656Z,41.12
2019-06-07T14:51:04.625Z,41.08
2019-06-07T14:53:36.387Z,39.90
2019-06-07T14:56:08.161Z,39.40
2019-06-07T14:58:43.210Z,40.47
2019-06-07T15:01:13.417Z,40.77
2019-06-07T15:03:46.275Z,41.23
2019-06-07T15:06:18.068Z,41.75
2019-06-07T15:08:51.539Z,41.83
2019-06-07T15:11:23.295Z,42.26
2019-06-07T15:13:55.056Z,42.48
2019-06-07T15:16:27.435Z,42.38
2019-06-07T15:18:59.198Z,42.33
2019-06-07T15:21:31.010Z,42.56
2019-06-07T15:24:02.774Z,41.39
2019-06-07T15:26:34.651Z,40.54
2019-06-07T15:29:06.780Z,40.84
2019-06-07T15:31:38.732Z,41.16
2019-06-07T15:34:11.069Z,41.16
2019-06-07T15:36:42.842Z,40.71
2019-06-07T15:39:14.616Z,41.21
2019-06-07T15:41:46.390Z,41.54
2019-06-07T15:44:18.153Z,41.47
2019-06-07T15:46:50.304Z,41.01
2019-06-07T15:49:22.092Z,40.97
2019-06-07T15:51:54.203Z,40.69
2019-06-07T15:54:25.972Z,40.73
2019-06-07T15:56:57.739Z,40.33
2019-06-07T15:59:29.509Z,40.01
2019-06-07T16:02:01.309Z,39.99
2019-06-07T16:04:33.461Z,39.94
2019-06-07T16:07:05.393Z,40.15
2019-06-07T16:09:38.495Z,40.31
2019-06-07T16:12:10.940Z,40.19
2019-06-07T16:14:43.495Z,40.21
2019-06-07T16:17:15.569Z,39.83
2019-06-07T16:19:47.352Z,39.57
2019-06-07T16:22:19.108Z,39.06
2019-06-07T16:24:50.865Z,39.80
2019-06-07T16:27:22.722Z,40.09
2019-06-07T16:29:54.483Z,40.28
2019-06-07T16:32:26.626Z,40.48
2019-06-07T16:34:58.386Z,41.22
2019-06-07T16:37:30.161Z,41.16
2019-06-07T16:40:01.919Z,41.12
2019-06-07T16:42:33.690Z,41.54
2019-06-07T16:45:13.012Z,41.70
2019-06-07T16:47:47.489Z,40.47
2019-06-07T16:50:18.978Z,40.27
2019-06-07T16:52:50.788Z,40.39
2019-06-07T16:55:22.909Z,40.18
2019-06-07T16:57:54.669Z,40.42
2019-06-07T17:00:26.499Z,40.76
2019-06-07T17:02:58.293Z,40.54
2019-06-07T17:05:30.120Z,40.62
2019-06-07T17:08:01.903Z,40.88
2019-06-07T17:10:33.720Z,41.32
2019-06-07T17:13:05.571Z,41.36
2019-06-07T17:15:38.551Z,41.33
2019-06-07T17:18:11.740Z,41.44
2019-06-07T17:20:43.517Z,41.48
2019-06-07T17:23:15.366Z,41.51
2019-06-07T17:25:47.513Z,41.94
2019-06-07T17:28:19.304Z,41.91
2019-06-07T17:30:51.056Z,42.40
2019-06-07T17:33:22.823Z,42.78
2019-06-07T17:35:54.588Z,42.90
2019-06-07T17:38:26.363Z,43.05
2019-06-07T17:40:58.124Z,43.20
2019-06-07T17:43:29.900Z,43.30
2019-06-07T17:46:01.656Z,43.67
2019-06-07T17:48:33.496Z,43.98
2019-06-07T17:51:05.405Z,44.03
2019-06-07T17:53:37.171Z,44.27
2019-06-07T17:56:08.947Z,44.52
2019-06-07T17:58:42.435Z,45.18
2019-06-07T18:01:14.599Z,45.47
2019-06-07T18:03:47.059Z,45.83
2019-06-07T18:06:19.815Z,46.72
2019-06-07T18:09:02.024Z,48.66
2019-06-07T18:11:35.407Z,51.07
2019-06-07T18:14:10.912Z,51.12
2019-06-07T18:16:40.796Z,51.55
2019-06-07T18:19:12.577Z,57.72
2019-06-07T18:21:45.015Z,67.19
2019-06-07T18:24:18.042Z,73.93
2019-06-07T18:26:50.515Z,78.71
2019-06-07T18:29:22.391Z,82.35
2019-06-07T18:31:55.247Z,78.74
2019-06-07T18:34:27.150Z,82.79
2019-06-07T18:36:59.318Z,83.40
2019-06-07T18:39:32.257Z,82.82
2019-06-07T18:42:04.352Z,83.69
2019-06-07T18:44:36.278Z,85.83
2019-06-07T18:47:08.100Z,85.80
2019-06-07T18:49:39.919Z,86.49
2019-06-07T18:52:13.278Z,86.49
2019-06-07T18:54:45.056Z,85.67
2019-06-07T18:57:16.882Z,85.28
2019-06-07T18:59:48.614Z,84.96
2019-06-07T19:02:20.823Z,84.55
2019-06-07T19:04:52.603Z,84.64
2019-06-07T19:07:24.378Z,83.71
2019-06-07T19:09:56.901Z,81.61
2019-06-07T19:12:29.042Z,81.85
2019-06-07T19:15:01.846Z,81.66
2019-06-07T19:17:33.619Z,83.04
2019-06-07T19:20:09.209Z,81.76
2019-06-07T19:22:41.970Z,81.93
2019-06-07T19:25:14.270Z,79.69
2019-06-07T19:27:46.123Z,79.56
2019-06-07T19:30:19.454Z,78.83
2019-06-07T19:32:51.487Z,79.72
2019-06-07T19:35:23.737Z,78.41
2019-06-07T19:37:55.849Z,78.24
2019-06-07T19:40:27.765Z,79.82
2019-06-07T19:43:00.631Z,78.54
2019-06-07T19:45:32.499Z,77.53
2019-06-07T19:48:04.642Z,77.61
2019-06-07T19:50:36.419Z,78.25
2019-06-07T19:53:08.236Z,78.00
2019-06-07T19:55:39.970Z,77.81
2019-06-07T19:58:11.747Z,78.19
2019-06-07T20:00:43.526Z,75.99
2019-06-07T20:03:15.304Z,75.77
2019-06-07T20:05:47.084Z,74.72
2019-06-07T20:08:18.902Z,74.12
2019-06-07T20:10:50.683Z,74.07
2019-06-07T20:13:22.721Z,73.53
2019-06-07T20:15:54.707Z,72.48
2019-06-07T20:18:28.116Z,72.84
2019-06-07T20:21:00.656Z,71.53
2019-06-07T20:23:33.065Z,72.13
2019-06-07T20:26:04.886Z,72.03
2019-06-07T20:28:37.571Z,71.65
2019-06-07T20:31:09.337Z,72.37
2019-06-07T20:33:41.094Z,72.71
2019-06-07T20:36:12.856Z,71.48
2019-06-07T20:38:45.326Z,71.66
2019-06-07T20:41:17.085Z,71.85
2019-06-07T20:43:48.868Z,72.02
2019-06-07T20:46:20.630Z,72.67
2019-06-07T20:48:52.397Z,72.75
2019-06-07T20:51:24.162Z,72.87
2019-06-07T20:53:55.925Z,73.15
2019-06-07T20:56:27.699Z,72.93
2019-06-07T20:59:00.485Z,72.12
2019-06-07T21:01:32.310Z,72.00
2019-06-07T21:04:05.105Z,72.36
2019-06-07T21:06:36.940Z,72.02
2019-06-07T21:09:09.727Z,72.06
2019-06-07T21:11:41.634Z,72.36
2019-06-07T21:14:13.406Z,71.55
2019-06-07T21:16:45.491Z,71.31
2019-06-07T21:19:17.266Z,70.85
2019-06-07T21:21:49.017Z,71.06
2019-06-07T21:24:20.798Z,70.71
2019-06-07T21:26:53.497Z,69.77
2019-06-07T21:29:25.393Z,70.06
2019-06-07T21:31:57.159Z,70.19
2019-06-07T21:34:29.231Z,70.39
2019-06-07T21:37:01.694Z,70.14
2019-06-07T21:39:33.542Z,70.48
2019-06-07T21:42:06.065Z,70.62
2019-06-07T21:44:37.933Z,70.71
2019-06-07T21:47:10.668Z,71.08
2019-06-07T21:49:42.767Z,70.49
2019-06-07T21:52:14.820Z,70.36
2019-06-07T21:54:46.629Z,70.84
2019-06-07T21:57:18.398Z,70.51
2019-06-07T21:59:50.172Z,70.90
2019-06-07T22:02:21.934Z,71.28
2019-06-07T22:04:53.699Z,71.09
2019-06-07T22:07:25.466Z,70.94
2019-06-07T22:09:57.253Z,70.66
2019-06-07T22:12:30.636Z,70.37
2019-06-07T22:15:24.414Z,69.62
2019-06-07T22:17:42.038Z,69.59
2019-06-07T22:20:14.761Z,70.13
2019-06-07T22:22:46.856Z,69.88
2019-06-07T22:25:19.703Z,69.83
2019-06-07T22:27:51.523Z,69.71
2019-06-07T22:30:23.326Z,69.52
2019-06-07T22:32:55.344Z,69.87
2019-06-07T22:35:27.116Z,69.45
2019-06-07T22:37:58.877Z,69.66
2019-06-07T22:40:30.739Z,70.04
2019-06-07T22:43:03.575Z,70.09
2019-06-07T22:45:35.355Z,69.55
2019-06-07T22:48:07.115Z,70.00
2019-06-07T22:50:39.204Z,70.12
2019-06-07T22:53:11.431Z,69.84
2019-06-07T22:55:46.231Z,69.98
2019-06-07T22:58:18.975Z,70.56
2019-06-07T23:00:50.842Z,70.01
2019-06-07T23:03:22.603Z,69.77
2019-06-07T23:05:54.379Z,69.31
2019-06-07T23:08:26.144Z,69.52
2019-06-07T23:10:57.920Z,69.68
2019-06-07T23:13:29.680Z,69.79
2019-06-07T23:16:01.463Z,70.19
2019-06-07T23:18:33.216Z,70.04
2019-06-07T23:21:04.977Z,70.25
2019-06-07T23:23:36.739Z,70.10
2019-06-07T23:26:09.975Z,70.17
2019-06-07T23:28:44.630Z,70.18
2019-06-07T23:31:16.636Z,69.79
2019-06-07T23:33:48.444Z,69.89
2019-06-07T23:36:21.360Z,69.33
2019-06-07T23:38:53.315Z,68.59
2019-06-07T23:41:25.117Z,68.79
2019-06-07T23:43:57.661Z,68.99
2019-06-07T23:46:29.436Z,68.79
2019-06-07T23:49:01.198Z,68.93
2019-06-07T23:51:33.289Z,68.79
2019-06-07T23:54:05.058Z,68.67
2019-06-07T23:56:36.831Z,68.66
2019-06-07T23:59:08.589Z,68.34
